This is the latest recevied weather packets stored in our database for station/object OK1LPD-6. If no packets are shown the sender has not sent any weather packets the latest 10 day(s).
| Time | Temp. | Humidity | Pressure | Rain* | Wind** | Luminosity | Snow |
|---|---|---|---|---|---|---|---|
| 1787498781 | 25.56° C | 32% | 1021.4 hPa | 0 mm | - | - | - |
| 1787498204 | 23.89° C | 34% | 1021.3 hPa | 0 mm | - | - | - |
| 1787497581 | 23.89° C | 34% | 1021.3 hPa | 0 mm | - | - | - |
| 1787496982 | 25.56° C | 33% | 1021.4 hPa | 0 mm | - | - | - |
| 1787496400 | 24.44° C | 36% | 1021.5 hPa | 0 mm | - | - | - |
| 1787495781 | 22.22° C | 40% | 1021.6 hPa | 0 mm | - | - | - |
| 1787495181 | 22.22° C | 43% | 1021.6 hPa | 0 mm | - | - | - |
| 1787494602 | 21.67° C | 43% | 1021.7 hPa | 0 mm | - | - | - |
| 1787493982 | 22.22° C | 43% | 1021.7 hPa | 0 mm | - | - | - |
| 1787493381 | 21.67° C | 45% | 1021.8 hPa | 0 mm | - | - | - |
| 1787492799 | 21.67° C | 45% | 1021.9 hPa | 0 mm | - | - | - |
| 1787492182 | 21.67° C | 44% | 1021.8 hPa | 0 mm | - | - | - |
| 1787491582 | 22.78° C | 40% | 1021.7 hPa | 0 mm | - | - | - |
| 1787490997 | 22.78° C | 40% | 1021.8 hPa | 0 mm | - | - | - |
| 1787490382 | 23.89° C | 38% | 1021.8 hPa | 0 mm | - | - | - |
| 1787489782 | 23.33° C | 40% | 1022 hPa | 0 mm | - | - | - |
| 1787489192 | 22.22° C | 44% | 1022.1 hPa | 0 mm | - | - | - |
| 1787488583 | 22.22° C | 44% | 1022.1 hPa | 0 mm | - | - | - |
| 1787487982 | 22.78° C | 40% | 1022.1 hPa | 0 mm | - | - | - |
| 1787487394 | 23.33° C | 40% | 1022 hPa | 0 mm | - | - | - |
| 1787486782 | 23.33° C | 40% | 1022.1 hPa | 0 mm | - | - | - |
| 1787486182 | 23.89° C | 37% | 1022 hPa | 0 mm | - | - | - |
| 1787485593 | 24.44° C | 36% | 1022 hPa | 0 mm | - | - | - |
| 1787484984 | 24.44° C | 37% | 1022 hPa | 0 mm | - | - | - |
| 1787484383 | 23.89° C | 40% | 1022.2 hPa | 0 mm | - | - | - |
* Rain latest hour (hover to see other rain measurements)
** Current wind speed in m/s (hover to see current wind gust speed)